^^
Station Historical Data
Daily Summary for January 5, 2018 Units:  Metric    English   Both
« Previous Day
Next Day »
Daily Weekly Monthly Yearly Custom
  High: Low: Average:
Temperature: -17.8 °C 22.9 °C 27.2 °C
Dew Point: -17.8 °C 1.7 °C 4.2 °C
Humidity: Humidity% 18% 23%
Wind Speed: 0km/h -1609.1km/h -43km/h
Wind Gust: 0km/h - -
Wind- -
Pressure: 0 hPa 1019.5 hPa -
Precipitation: 0 mm    
Historical Graphs
 
 
Tabular Data for January 5, 2018
Time Temperature Dew Point Pressure Wind Wind Speed Wind Gust Humidity Rainfall Rate (Hourly) solar Conditions
-17.8 °C -17.8 °C 0 hPa Calm     Humidity% 0 mm SoftwareType W/m2 Conditions
09:00 22.9 °C 6.2 °C 1025.6 hPa North -1609.1 km/h -1607.7 km/h 34% 0 mm meteobridge W/m2
09:06 23.1 °C 6.4 °C 1025.6 hPa East 4.7 km/h 22.5 km/h 34% 0 mm meteobridge W/m2
09:12 23.2 °C 6 °C 1025.6 hPa NE 11.1 km/h 22.5 km/h 33% 0 mm meteobridge W/m2
09:18 23.3 °C 5.7 °C 1025.6 hPa NNE 20.9 km/h 20.9 km/h 32% 0 mm meteobridge W/m2
09:22 23.3 °C 5.7 °C 1025.6 hPa NNE 20.9 km/h 27.4 km/h 32% 0 mm meteobridge W/m2
09:28 23.2 °C 6 °C 1025.3 hPa NE 14.3 km/h 17.7 km/h 33% 0 mm meteobridge W/m2
09:34 23.7 °C 6 °C 1025.6 hPa NNE 11.1 km/h 19.3 km/h 32% 0 mm meteobridge W/m2
09:40 24.1 °C 6.4 °C 1025.6 hPa North 7.9 km/h 14.5 km/h 32% 0 mm meteobridge W/m2
09:47 24.3 °C 6.1 °C 1025.6 hPa NE 14.3 km/h 16.1 km/h 31% 0 mm meteobridge W/m2
09:53 24.7 °C 6.4 °C 1025.6 hPa NNE 6.4 km/h 16.1 km/h 31% 0 mm meteobridge W/m2
09:59 24.9 °C 6.6 °C 1025.6 hPa SSE 7.9 km/h 20.9 km/h 31% 0 mm meteobridge W/m2
10:01 24.8 °C 6 °C 1025.6 hPa SSW 1.4 km/h 14.5 km/h 30% 0 mm meteobridge W/m2
10:09 25.1 °C 6.3 °C 1025.6 hPa ENE 7.9 km/h 16.1 km/h 30% 0 mm meteobridge W/m2
10:17 24.9 °C 6.1 °C 1025.3 hPa NNE 17.7 km/h 17.7 km/h 30% 0 mm meteobridge W/m2
10:23 25 °C 5.7 °C 1025.6 hPa NE 11.1 km/h 24.1 km/h 29% 0 mm meteobridge W/m2
10:29 25 °C 6.2 °C 1025.3 hPa SE 1.4 km/h 11.3 km/h 30% 0 mm meteobridge W/m2
10:36 25.4 °C 6.1 °C 1025.3 hPa NE 11.1 km/h 12.9 km/h 29% 0 mm meteobridge W/m2
10:44 26.2 °C 6.8 °C 1025.3 hPa ESE 7.9 km/h 22.5 km/h 29% 0 mm meteobridge W/m2
10:52 26.7 °C 6.7 °C 1025.3 hPa East 9.7 km/h 9.7 km/h 28% 0 mm meteobridge W/m2
10:58 27 °C 6.4 °C 1024.9 hPa ENE 4.7 km/h 17.7 km/h 27% 0 mm meteobridge W/m2
11:04 26.8 °C 6.2 °C 1024.9 hPa NNE 19.5 km/h 27.4 km/h 27% 0 mm meteobridge W/m2
11:08 26 °C 5.6 °C 1024.9 hPa NNE 9.7 km/h 32.2 km/h 27% 0 mm meteobridge W/m2
11:10 25.9 °C 5.5 °C 1024.9 hPa ENE 1.4 km/h 11.3 km/h 27% 0 mm meteobridge W/m2
11:16 26.1 °C 5.6 °C 1024.9 hPa NNE 16.3 km/h 16.3 km/h 27% 0 mm meteobridge W/m2
11:22 26.6 °C 5.5 °C 1024.6 hPa NNE 11.1 km/h 19.3 km/h 26% 0 mm meteobridge W/m2
11:30 26.5 °C 4.9 °C 1024.6 hPa NNE 3.2 km/h 17.7 km/h 25% 0 mm meteobridge W/m2
11:38 26.7 °C 5 °C 1024.9 hPa ESE 7.9 km/h 8 km/h 25% 0 mm meteobridge W/m2
11:44 27.1 °C 5.4 °C 1024.6 hPa ENE 16.3 km/h 24.1 km/h 25% 0 mm meteobridge W/m2
11:50 27.5 °C 5.1 °C 1024.6 hPa NNE 4.7 km/h 17.7 km/h 24% 0 mm meteobridge W/m2
11:52 27.6 °C 5.2 °C 1024.3 hPa NE 3.2 km/h 6.4 km/h 24% 0 mm meteobridge W/m2
11:58 27.7 °C 4.7 °C 1024.6 hPa NNE 17.7 km/h 29 km/h 23% 0 mm meteobridge W/m2
12:05 27.3 °C 5 °C 1024.3 hPa North 16.3 km/h 17.7 km/h 24% 0 mm meteobridge W/m2
12:11 27.6 °C 5.2 °C 1024.3 hPa SSE 7.9 km/h 9.7 km/h 24% 0 mm meteobridge W/m2
12:17 28.2 °C 5.7 °C 1024.3 hPa SE 4.7 km/h 8 km/h 24% 0 mm meteobridge W/m2
12:23 28.3 °C 4.5 °C 1023.9 hPa NNE 24.1 km/h 24.1 km/h 22% 0 mm meteobridge W/m2
12:29 27.8 °C 4.1 °C 1023.9 hPa NNW 6.4 km/h 29 km/h 22% 0 mm meteobridge W/m2
12:37 27.9 °C 4.9 °C 1023.9 hPa North 7.9 km/h 14.5 km/h 23% 0 mm meteobridge W/m2
12:41 28.4 °C 4.6 °C 1023.9 hPa NNE 11.1 km/h 32.2 km/h 22% 0 mm meteobridge W/m2
12:51 28.4 °C 4.6 °C 1023.6 hPa NE 3.2 km/h 19.3 km/h 22% 0 mm meteobridge W/m2
12:57 28.5 °C 4.7 °C 1023.6 hPa North 20.9 km/h 20.9 km/h 22% 0 mm meteobridge W/m2
13:03 28.5 °C 4.7 °C 1023.6 hPa North 25.9 km/h 27.4 km/h 22% 0 mm meteobridge W/m2
13:12 28.9 °C 5 °C 1023.6 hPa NE 13 km/h 24.1 km/h 22% 0 mm meteobridge W/m2
13:32 28.4 °C 4.6 °C 1023.2 hPa NNE 17.7 km/h 25.7 km/h 22% 0 mm meteobridge W/m2
13:38 28.9 °C 4.4 °C 1023.2 hPa NW 22.7 km/h 29 km/h 21% 0 mm meteobridge W/m2
13:46 29.2 °C 4.6 °C 1023.2 hPa North 16.3 km/h 30.6 km/h 21% 0 mm meteobridge W/m2
13:54 28.9 °C 4.4 °C 1022.9 hPa North 19.5 km/h 29 km/h 21% 0 mm meteobridge W/m2
14:00 28.8 °C 4.3 °C 1022.6 hPa North 24.1 km/h 27.4 km/h 21% 0 mm meteobridge W/m2
14:06 29.2 °C 4.6 °C 1022.9 hPa North 6.4 km/h 22.5 km/h 21% 0 mm meteobridge W/m2
14:15 28.4 °C 4 °C 1022.6 hPa NNW 14.3 km/h 27.4 km/h 21% 0 mm meteobridge W/m2
14:25 29.3 °C 4 °C 1022.6 hPa North 19.5 km/h 29 km/h 20% 0 mm meteobridge W/m2
14:33 29.1 °C 3.9 °C 1022.2 hPa NNW 4.7 km/h 16.1 km/h 20% 0 mm meteobridge W/m2
14:47 29 °C 3.8 °C 1022.2 hPa North 14.3 km/h 35.4 km/h 20% 0 mm meteobridge W/m2
14:53 28.6 °C 4.1 °C 1022.2 hPa NNE 16.3 km/h 20.9 km/h 21% 0 mm meteobridge W/m2
15:00 29.1 °C 3.9 °C 1021.9 hPa North 13 km/h 13 km/h 20% 0 mm meteobridge W/m2
15:06 29.3 °C 4 °C 1021.9 hPa North 19.5 km/h 27.4 km/h 20% 0 mm meteobridge W/m2
15:12 29.1 °C 3.9 °C 1021.9 hPa North 17.7 km/h 24.1 km/h 20% 0 mm meteobridge W/m2
15:20 29.3 °C 4 °C 1021.6 hPa NE 6.4 km/h 25.7 km/h 20% 0 mm meteobridge W/m2
15:26 29.4 °C 4.1 °C 1021.2 hPa NW 9.7 km/h 16.1 km/h 20% 0 mm meteobridge W/m2
15:32 29.1 °C 3.9 °C 1021.2 hPa NNE 11.1 km/h 24.1 km/h 20% 0 mm meteobridge W/m2
15:38 28.3 °C 3.9 °C 1021.2 hPa North 11.1 km/h 25.7 km/h 21% 0 mm meteobridge W/m2
15:44 28.9 °C 4.4 °C 1021.2 hPa NNE 17.7 km/h 20.9 km/h 21% 0 mm meteobridge W/m2
15:50 29 °C 3.8 °C 1021.2 hPa North 17.7 km/h 17.7 km/h 20% 0 mm meteobridge W/m2
16:01 29 °C 3.8 °C 1021.2 hPa North 7.9 km/h 17.7 km/h 20% 0 mm meteobridge W/m2
16:07 29.4 °C 4.1 °C 1021.2 hPa NNE 6.4 km/h 27.4 km/h 20% 0 mm meteobridge W/m2
16:15 30.5 °C 5 °C 1020.9 hPa SE 4.7 km/h 8 km/h 20% 0 mm meteobridge W/m2
16:21 30.3 °C 4.1 °C 1020.9 hPa North 25.9 km/h 32.2 km/h 19% 0 mm meteobridge W/m2
16:27 29.3 °C 4 °C 1020.9 hPa North 4.7 km/h 12.9 km/h 20% 0 mm meteobridge W/m2
16:35 29.9 °C 3.8 °C 1020.5 hPa North 3.2 km/h 11.3 km/h 19% 0 mm meteobridge W/m2
16:58 30.3 °C 3.3 °C 1020.2 hPa North 17.7 km/h 20.9 km/h 18% 0 mm meteobridge W/m2
17:04 30.1 °C 3.9 °C 1020.2 hPa NNW 19.5 km/h 20.9 km/h 19% 0 mm meteobridge W/m2
17:10 29.9 °C 3.8 °C 1020.2 hPa NNW 20.9 km/h 24.1 km/h 19% 0 mm meteobridge W/m2
17:16 29.7 °C 2.8 °C 1019.9 hPa North 4.7 km/h 8 km/h 18% 0 mm meteobridge W/m2
17:26 29.7 °C 2.8 °C 1019.9 hPa North 11.1 km/h 25.7 km/h 18% 0 mm meteobridge W/m2
17:37 29.3 °C 3.3 °C 1020.2 hPa NNE 9.7 km/h 20.9 km/h 19% 0 mm meteobridge W/m2
17:43 29.5 °C 2.7 °C 1020.2 hPa North 17.7 km/h 24.1 km/h 18% 0 mm meteobridge W/m2
17:47 29.3 °C 2.5 °C 1019.9 hPa NNE 1.4 km/h 9.7 km/h 18% 0 mm meteobridge W/m2
17:53 29.8 °C 2.9 °C 1019.9 hPa SE 4.7 km/h 9.7 km/h 18% 0 mm meteobridge W/m2
17:59 30.3 °C 3.3 °C 1019.9 hPa North 16.3 km/h 20.9 km/h 18% 0 mm meteobridge W/m2
18:15 29.4 °C 2.6 °C 1019.5 hPa North 16.3 km/h 17.7 km/h 18% 0 mm meteobridge W/m2
18:21 29.5 °C 2.7 °C 1019.5 hPa North 7.9 km/h 16.1 km/h 18% 0 mm meteobridge W/m2
18:27 29.1 °C 2.4 °C 1019.5 hPa North 14.3 km/h 24.1 km/h 18% 0 mm meteobridge W/m2
18:34 28.7 °C 2 °C 1019.5 hPa NNW 9.7 km/h 20.9 km/h 18% 0 mm meteobridge W/m2
18:42 28.3 °C 1.7 °C 1019.5 hPa North 7.9 km/h 14.5 km/h 18% 0 mm meteobridge W/m2
18:48 28.1 °C 2.3 °C 1019.9 hPa North 19.5 km/h 20.9 km/h 19% 0 mm meteobridge W/m2
18:56 27.7 °C 2 °C 1019.9 hPa North 4.7 km/h 17.7 km/h 19% 0 mm meteobridge W/m2
19:03 27.7 °C 2 °C 1019.5 hPa North 4.7 km/h -1607.7 km/h 19% 0 mm meteobridge W/m2
19:16 27.7 °C 2 °C 1019.9 hPa North -1609.1 km/h -1607.7 km/h 19% 0 mm meteobridge W/m2
19:24 27.7 °C 2 °C 1019.9 hPa North -1609.1 km/h -1607.7 km/h 19% 0 mm meteobridge W/m2
Regenstein, Windhoek, Namibia
Compliments of Weather Underground - 2.5 mb